Jork Reliance — V2CL2 — position and weather

sailwx.info

Track history (hours):
 
Tides and Currents Weather Stations Pressure Air Temp Water Temp Dewpoint Dewpoint Depression Visibility Wind Speed Wind Dir Waves Ship Positions

Jork Reliance

Last reported at 2015-May-23 08:32 UTC. Time now 2015-May-23 08:52 UTC.
Position N 51°20' E 004°17'.

Length 141 m; draft 7.3 m.

Type: Ship (hazmat cat A). MMSI: 305033000.

Date/timePositionNaut miles runAvg speedWind from/ knotsBaromVisibWave heightAir tempDewpointWater temp
2015-May-23 08:32N 51°20' E 004°17'0 0.0
2015-May-23 07:32N 51°20' E 004°17'0 0.0
2015-May-23 06:32N 51°20' E 004°17'0 0.0
2015-May-23 05:32N 51°20' E 004°17'0 0.0
2015-May-23 04:26N 51°20' E 004°17'0 0.0
2015-May-23 03:32N 51°20' E 004°17'0 0.0
2015-May-23 02:32N 51°20' E 004°17'0 0.0
2015-May-23 01:32N 51°20' E 004°17'0 0.0
2015-May-23 00:32N 51°20' E 004°17'0 0.0
2015-May-22 23:32N 51°20' E 004°17'0 0.0
2015-May-22 22:32N 51°20' E 004°17'0 0.0
2015-May-22 21:32N 51°20' E 004°17'0 0.0
2015-May-22 20:32N 51°20' E 004°17'1 1.0
2015-May-22 19:33N 51°21' E 004°15'10 9.9
2015-May-22 18:33N 51°26' E 004°01'1111.3
2015-May-22 17:34N 51°22' E 003°44'1212.2
2015-May-22 16:33N 51°30' E 003°28'1514.7
2015-May-22 15:32N 51°43' E 003°16'1414.0
2015-May-22 14:33N 51°56' E 003°20'1312.8
2015-May-22 13:33N 52°02' E 003°38'1 1.3
2015-May-22 12:33N 52°03' E 003°39'1111.4
2015-May-22 11:33N 52°01' E 003°58'1313.5
2015-May-22 10:33N 51°54' E 004°16'5 5.2
2015-May-22 09:31N 51°53' E 004°25'0 0.0
2015-May-22 08:31N 51°53' E 004°25'0 0.0
2015-May-22 07:31N 51°53' E 004°25'0 0.0
2015-May-22 06:31N 51°53' E 004°25'0 0.0
2015-May-22 05:31N 51°53' E 004°25'0 0.0
2015-May-22 04:31N 51°53' E 004°25'0 0.0
2015-May-22 03:31N 51°53' E 004°25'0 0.2
2015-May-22 02:31N 51°53' E 004°24'0 0.2
2015-May-22 01:31N 51°53' E 004°25'0 0.0
2015-May-22 00:31N 51°53' E 004°25'0 0.0
2015-May-21 23:31N 51°53' E 004°25'0 0.0
2015-May-21 22:31N 51°53' E 004°25'0 0.0
2015-May-21 21:31N 51°53' E 004°25'3 3.3
2015-May-21 20:33N 51°54' E 004°20'1211.7
2015-May-21 19:33N 51°59' E 004°03'1515.1
2015-May-21 18:33N 51°58' E 003°39'1414.4
2015-May-21 17:33N 51°54' E 003°16'1413.9
2015-May-21 16:33N 51°49' E 002°55'1313.4
2015-May-21 15:33N 51°44' E 002°35'1414.4
2015-May-21 14:34N 51°33' E 002°21'1616.0
2015-May-21 13:34N 51°19' E 002°08'1615.6
2015-May-21 12:34N 51°08' E 001°50'1615.6
2015-May-21 11:34N 50°57' E 001°32'1413.9
2015-May-21 10:34N 50°45' E 001°23'1413.8
2015-May-21 09:33N 50°35' E 001°07'1413.9
2015-May-21 08:33N 50°29' E 000°48'1615.1
2015-May-21 07:28N 50°25' E 000°23'1815.3
2015-May-21 06:17N 50°21' W 000°05'1715.1
2015-May-21 05:11N 50°19' W 000°31'914.4
2015-May-21 04:33N 50°19' W 000°45'1413.7
2015-May-21 03:33N 50°19' W 001°07'1313.5
2015-May-21 02:33N 50°18' W 001°27'4916.1
2015-May-20 23:30N 50°10' W 002°43'1717.7
2015-May-20 22:33N 50°07' W 003°09'  
2015-May-18 00:33N 50°06' W 003°31'1717.7
2015-May-17 23:34N 50°09' W 003°05'4615.2
2015-May-17 20:33N 50°18' W 001°55'2712.3
2015-May-17 18:23N 50°24' W 001°14'1112.8
2015-May-17 17:33N 50°26' W 000°58'3616.4
2015-May-17 15:20N 50°32' W 000°01'1317.5
2015-May-17 14:33N 50°35' E 000°19'1716.9
2015-May-17 13:33N 50°41' E 000°44'1615.6
2015-May-17 12:33N 50°52' E 001°03'1414.0
2015-May-17 11:33N 51°00' E 001°20'1313.3
2015-May-17 10:33N 51°09' E 001°36'1515.0
2015-May-17 09:34N 51°21' E 001°51'1716.9
2015-May-17 08:33N 51°34' E 002°07'1514.7
2015-May-17 07:30N 51°45' E 002°25'2913.3
2015-May-17 05:20N 52°02' E 003°04'1012.8
2015-May-17 04:33N 52°03' E 003°20'1212.5
2015-May-17 03:33N 52°03' E 003°40'1110.5
2015-May-17 02:33N 52°01' E 003°57'1111.1
2015-May-17 01:33N 51°56' E 004°13'8 8.1
2015-May-17 00:33N 51°53' E 004°25'0 0.0
2015-May-16 23:33N 51°53' E 004°25'0 0.0
2015-May-16 22:33N 51°53' E 004°25'0 0.0
2015-May-16 21:33N 51°53' E 004°25'0 0.0
2015-May-16 20:33N 51°53' E 004°25'0 0.0
2015-May-16 19:33N 51°53' E 004°25'0 0.0
2015-May-16 18:33N 51°53' E 004°25'0 0.0
2015-May-16 17:30N 51°53' E 004°25'0 0.0
2015-May-16 16:30N 51°53' E 004°25'0 0.0
2015-May-16 15:30N 51°53' E 004°25'0 0.0
2015-May-16 14:33N 51°53' E 004°25'0 0.0
2015-May-16 13:33N 51°53' E 004°25'0 0.0
2015-May-16 12:33N 51°53' E 004°25'1 1.0
2015-May-16 11:33N 51°54' E 004°24'1110.9
2015-May-16 10:33N 51°58' E 004°08'1414.2
2015-May-16 09:33N 51°59' E 003°45'1514.8
2015-May-16 08:33N 51°53' E 003°23'1312.9
2015-May-16 07:33N 51°40' E 003°18'1110.8
2015-May-16 06:33N 51°31' E 003°26'9 9.4
2015-May-16 05:33N 51°26' E 003°39'1111.2
2015-May-16 04:34N 51°23' E 003°56'10 9.7
2015-May-16 03:34N 51°24' E 004°12'5 4.6
2015-May-16 02:31N 51°20' E 004°17'0 0.0
2015-May-16 01:31N 51°20' E 004°17'0 0.0
2015-May-16 00:31N 51°20' E 004°17'0 0.0
2015-May-15 23:31N 51°20' E 004°17'0 0.0
2015-May-15 22:31N 51°20' E 004°17'0 0.0
2015-May-15 21:31N 51°20' E 004°17'0 0.0
2015-May-15 20:31N 51°20' E 004°17'0 0.0
2015-May-15 19:31N 51°20' E 004°17'0 0.0
2015-May-15 18:31N 51°20' E 004°17'0 0.0
2015-May-15 17:31N 51°20' E 004°17'0 0.0
2015-May-15 16:31N 51°20' E 004°17'0 0.0
2015-May-15 15:28N 51°20' E 004°17'0 0.0
2015-May-15 14:31N 51°20' E 004°17'0 0.0
2015-May-15 13:31N 51°20' E 004°17'0 0.0
2015-May-15 12:31N 51°20' E 004°17'0 0.0
2015-May-15 11:31N 51°20' E 004°17'0 0.0
2015-May-15 10:31N 51°20' E 004°17'5 5.3
2015-May-15 09:34N 51°23' E 004°10'1312.5
2015-May-15 08:34N 51°21' E 003°51'1413.8
2015-May-15 07:33N 51°25' E 003°30'8 8.1
2015-May-15 06:33N 51°24' E 003°17'8 7.8
2015-May-15 05:33N 51°24' E 003°04'1312.9
2015-May-15 04:33N 51°21' E 002°44'1211.8
2015-May-15 03:33N 51°21' E 002°25'1211.7
2015-May-15 02:33N 51°15' E 002°09'1212.3
2015-May-15 01:33N 51°09' E 001°52'1312.9
2015-May-15 00:34N 51°01' E 001°36'3213.7
2015-May-14 22:14N 50°35' E 001°05'1513.5
2015-May-14 21:08N 50°29' E 000°44'1113.3
2015-May-14 20:17N 50°26' E 000°27'5414.5
2015-May-14 16:32N 50°19' W 000°57'1615.9
2015-May-14 15:33N 50°18' W 001°22'2017.2
2015-May-14 14:25N 50°16' W 001°52'2915.6
2015-May-14 12:32N 50°10' W 002°37'1414.7
2015-May-14 11:33N 50°08' W 002°59'1514.6
2015-May-14 10:33N 50°05' W 003°22'13210.2
2015-May-13 21:33N 51°33' W 005°58'1817.7
2015-May-13 20:33N 51°50' W 005°56'1817.6
2015-May-13 19:32N 52°08' W 005°54'  
Track history (hours):
 
Tides and Currents Weather Stations Pressure Air Temp Water Temp Dewpoint Dewpoint Depression Visibility Wind Speed Wind Dir Waves Ship Positions

Jork Reliance

Last reported at 2015-May-23 08:32 UTC. Time now 2015-May-23 08:52 UTC.
Position N 51°20' E 004°17'.

Length 141 m; draft 7.3 m.

Type: Ship (hazmat cat A). MMSI: 305033000.

Date/timePositionNaut miles runAvg speedWind from/ knotsBaromVisibWave heightAir tempDewpointWater temp
2015-May-23 08:32N 51°20' E 004°17'0 0.0
2015-May-23 07:32N 51°20' E 004°17'0 0.0
2015-May-23 06:32N 51°20' E 004°17'0 0.0
2015-May-23 05:32N 51°20' E 004°17'0 0.0
2015-May-23 04:26N 51°20' E 004°17'0 0.0
2015-May-23 03:32N 51°20' E 004°17'0 0.0
2015-May-23 02:32N 51°20' E 004°17'0 0.0
2015-May-23 01:32N 51°20' E 004°17'0 0.0
2015-May-23 00:32N 51°20' E 004°17'0 0.0
2015-May-22 23:32N 51°20' E 004°17'0 0.0
2015-May-22 22:32N 51°20' E 004°17'0 0.0
2015-May-22 21:32N 51°20' E 004°17'0 0.0
2015-May-22 20:32N 51°20' E 004°17'1 1.0
2015-May-22 19:33N 51°21' E 004°15'10 9.9
2015-May-22 18:33N 51°26' E 004°01'1111.3
2015-May-22 17:34N 51°22' E 003°44'1212.2
2015-May-22 16:33N 51°30' E 003°28'1514.7
2015-May-22 15:32N 51°43' E 003°16'1414.0
2015-May-22 14:33N 51°56' E 003°20'1312.8
2015-May-22 13:33N 52°02' E 003°38'1 1.3
2015-May-22 12:33N 52°03' E 003°39'1111.4
2015-May-22 11:33N 52°01' E 003°58'1313.5
2015-May-22 10:33N 51°54' E 004°16'5 5.2
2015-May-22 09:31N 51°53' E 004°25'0 0.0
2015-May-22 08:31N 51°53' E 004°25'0 0.0
2015-May-22 07:31N 51°53' E 004°25'0 0.0
2015-May-22 06:31N 51°53' E 004°25'0 0.0
2015-May-22 05:31N 51°53' E 004°25'0 0.0
2015-May-22 04:31N 51°53' E 004°25'0 0.0
2015-May-22 03:31N 51°53' E 004°25'0 0.2
2015-May-22 02:31N 51°53' E 004°24'0 0.2
2015-May-22 01:31N 51°53' E 004°25'0 0.0
2015-May-22 00:31N 51°53' E 004°25'0 0.0
2015-May-21 23:31N 51°53' E 004°25'0 0.0
2015-May-21 22:31N 51°53' E 004°25'0 0.0
2015-May-21 21:31N 51°53' E 004°25'3 3.3
2015-May-21 20:33N 51°54' E 004°20'1211.7
2015-May-21 19:33N 51°59' E 004°03'1515.1
2015-May-21 18:33N 51°58' E 003°39'1414.4
2015-May-21 17:33N 51°54' E 003°16'1413.9
2015-May-21 16:33N 51°49' E 002°55'1313.4
2015-May-21 15:33N 51°44' E 002°35'1414.4
2015-May-21 14:34N 51°33' E 002°21'1616.0
2015-May-21 13:34N 51°19' E 002°08'1615.6
2015-May-21 12:34N 51°08' E 001°50'1615.6
2015-May-21 11:34N 50°57' E 001°32'1413.9
2015-May-21 10:34N 50°45' E 001°23'1413.8
2015-May-21 09:33N 50°35' E 001°07'1413.9
2015-May-21 08:33N 50°29' E 000°48'1615.1
2015-May-21 07:28N 50°25' E 000°23'1815.3
2015-May-21 06:17N 50°21' W 000°05'1715.1
2015-May-21 05:11N 50°19' W 000°31'914.4
2015-May-21 04:33N 50°19' W 000°45'1413.7
2015-May-21 03:33N 50°19' W 001°07'1313.5
2015-May-21 02:33N 50°18' W 001°27'4916.1
2015-May-20 23:30N 50°10' W 002°43'1717.7
2015-May-20 22:33N 50°07' W 003°09'  
2015-May-18 00:33N 50°06' W 003°31'1717.7
2015-May-17 23:34N 50°09' W 003°05'4615.2
2015-May-17 20:33N 50°18' W 001°55'2712.3
2015-May-17 18:23N 50°24' W 001°14'1112.8
2015-May-17 17:33N 50°26' W 000°58'3616.4
2015-May-17 15:20N 50°32' W 000°01'1317.5
2015-May-17 14:33N 50°35' E 000°19'1716.9
2015-May-17 13:33N 50°41' E 000°44'1615.6
2015-May-17 12:33N 50°52' E 001°03'1414.0
2015-May-17 11:33N 51°00' E 001°20'1313.3
2015-May-17 10:33N 51°09' E 001°36'1515.0
2015-May-17 09:34N 51°21' E 001°51'1716.9
2015-May-17 08:33N 51°34' E 002°07'1514.7
2015-May-17 07:30N 51°45' E 002°25'2913.3
2015-May-17 05:20N 52°02' E 003°04'1012.8
2015-May-17 04:33N 52°03' E 003°20'1212.5
2015-May-17 03:33N 52°03' E 003°40'1110.5
2015-May-17 02:33N 52°01' E 003°57'1111.1
2015-May-17 01:33N 51°56' E 004°13'8 8.1
2015-May-17 00:33N 51°53' E 004°25'0 0.0
2015-May-16 23:33N 51°53' E 004°25'0 0.0
2015-May-16 22:33N 51°53' E 004°25'0 0.0
2015-May-16 21:33N 51°53' E 004°25'0 0.0
2015-May-16 20:33N 51°53' E 004°25'0 0.0
2015-May-16 19:33N 51°53' E 004°25'0 0.0
2015-May-16 18:33N 51°53' E 004°25'0 0.0
2015-May-16 17:30N 51°53' E 004°25'0 0.0
2015-May-16 16:30N 51°53' E 004°25'0 0.0
2015-May-16 15:30N 51°53' E 004°25'0 0.0
2015-May-16 14:33N 51°53' E 004°25'0 0.0
2015-May-16 13:33N 51°53' E 004°25'0 0.0
2015-May-16 12:33N 51°53' E 004°25'1 1.0
2015-May-16 11:33N 51°54' E 004°24'1110.9
2015-May-16 10:33N 51°58' E 004°08'1414.2
2015-May-16 09:33N 51°59' E 003°45'1514.8
2015-May-16 08:33N 51°53' E 003°23'1312.9
2015-May-16 07:33N 51°40' E 003°18'1110.8
2015-May-16 06:33N 51°31' E 003°26'9 9.4
2015-May-16 05:33N 51°26' E 003°39'1111.2
2015-May-16 04:34N 51°23' E 003°56'10 9.7
2015-May-16 03:34N 51°24' E 004°12'5 4.6
2015-May-16 02:31N 51°20' E 004°17'0 0.0
2015-May-16 01:31N 51°20' E 004°17'0 0.0
2015-May-16 00:31N 51°20' E 004°17'0 0.0
2015-May-15 23:31N 51°20' E 004°17'0 0.0
2015-May-15 22:31N 51°20' E 004°17'0 0.0
2015-May-15 21:31N 51°20' E 004°17'0 0.0
2015-May-15 20:31N 51°20' E 004°17'0 0.0
2015-May-15 19:31N 51°20' E 004°17'0 0.0
2015-May-15 18:31N 51°20' E 004°17'0 0.0
2015-May-15 17:31N 51°20' E 004°17'0 0.0
2015-May-15 16:31N 51°20' E 004°17'0 0.0
2015-May-15 15:28N 51°20' E 004°17'0 0.0
2015-May-15 14:31N 51°20' E 004°17'0 0.0
2015-May-15 13:31N 51°20' E 004°17'0 0.0
2015-May-15 12:31N 51°20' E 004°17'0 0.0
2015-May-15 11:31N 51°20' E 004°17'0 0.0
2015-May-15 10:31N 51°20' E 004°17'5 5.3
2015-May-15 09:34N 51°23' E 004°10'1312.5
2015-May-15 08:34N 51°21' E 003°51'1413.8
2015-May-15 07:33N 51°25' E 003°30'8 8.1
2015-May-15 06:33N 51°24' E 003°17'8 7.8
2015-May-15 05:33N 51°24' E 003°04'1312.9
2015-May-15 04:33N 51°21' E 002°44'1211.8
2015-May-15 03:33N 51°21' E 002°25'1211.7
2015-May-15 02:33N 51°15' E 002°09'1212.3
2015-May-15 01:33N 51°09' E 001°52'1312.9
2015-May-15 00:34N 51°01' E 001°36'3213.7
2015-May-14 22:14N 50°35' E 001°05'1513.5
2015-May-14 21:08N 50°29' E 000°44'1113.3
2015-May-14 20:17N 50°26' E 000°27'5414.5
2015-May-14 16:32N 50°19' W 000°57'1615.9
2015-May-14 15:33N 50°18' W 001°22'2017.2
2015-May-14 14:25N 50°16' W 001°52'2915.6
2015-May-14 12:32N 50°10' W 002°37'1414.7
2015-May-14 11:33N 50°08' W 002°59'1514.6
2015-May-14 10:33N 50°05' W 003°22'13210.2
2015-May-13 21:33N 51°33' W 005°58'1817.7
2015-May-13 20:33N 51°50' W 005°56'1817.6
2015-May-13 19:32N 52°08' W 005°54'  

Dump ship's entire track history